createdAt,value
2019-03-13T00:02:06.174Z,57.93
2019-03-13T00:04:33.047Z,58.00
2019-03-13T00:06:59.624Z,60.93
2019-03-13T00:09:26.299Z,60.13
2019-03-13T00:11:52.900Z,50.10
2019-03-13T00:14:19.632Z,61.63
2019-03-13T00:16:46.403Z,55.47
2019-03-13T00:19:13.215Z,50.43
2019-03-13T00:21:40.018Z,41.03
2019-03-13T00:24:06.659Z,53.00
2019-03-13T00:26:33.319Z,48.77
2019-03-13T00:29:03.061Z,47.67
2019-03-13T00:31:29.920Z,50.00
2019-03-13T00:33:56.529Z,48.10
2019-03-13T00:36:23.251Z,45.00
2019-03-13T00:38:49.852Z,41.87
2019-03-13T00:41:16.526Z,48.20
2019-03-13T00:43:43.170Z,53.50
2019-03-13T00:46:09.732Z,49.67
2019-03-13T00:48:36.423Z,46.17
2019-03-13T00:51:03.999Z,48.67
2019-03-13T00:53:33.685Z,41.33
2019-03-13T00:56:00.298Z,50.43
2019-03-13T00:58:28.097Z,50.73
2019-03-13T01:00:59.975Z,48.63
2019-03-13T01:03:29.263Z,48.10
2019-03-13T01:05:57.885Z,52.20
2019-03-13T01:08:24.804Z,49.90
2019-03-13T01:11:47.682Z,42.63
2019-03-13T01:14:14.367Z,56.30
2019-03-13T01:16:40.953Z,46.70
2019-03-13T01:19:07.807Z,53.13
2019-03-13T01:21:34.354Z,46.87
2019-03-13T01:24:01.089Z,48.30
2019-03-13T01:26:28.959Z,46.13
2019-03-13T01:28:55.545Z,48.07
2019-03-13T01:31:24.027Z,38.87
2019-03-13T01:33:50.682Z,50.43
2019-03-13T01:36:17.513Z,43.73
2019-03-13T01:38:44.838Z,51.77
2019-03-13T01:41:11.449Z,44.70
2019-03-13T01:43:38.121Z,46.37
2019-03-13T01:46:04.708Z,41.77
2019-03-13T01:48:31.421Z,40.80
2019-03-13T01:50:58.284Z,46.57
2019-03-13T01:53:25.005Z,38.67
2019-03-13T01:55:51.598Z,40.63
2019-03-13T01:58:18.195Z,39.67
2019-03-13T02:00:44.922Z,41.50
2019-03-13T02:03:11.756Z,35.73
2019-03-13T02:05:41.903Z,37.53
2019-03-13T02:08:08.680Z,38.50
2019-03-13T02:10:35.273Z,42.87
2019-03-13T02:13:02.298Z,42.00
2019-03-13T02:15:28.961Z,41.53
2019-03-13T02:17:55.545Z,40.20
2019-03-13T02:20:22.693Z,47.27
2019-03-13T02:22:49.242Z,39.43
2019-03-13T02:25:16.437Z,39.83
2019-03-13T02:27:43.353Z,43.53
2019-03-13T02:30:15.866Z,37.93
2019-03-13T02:32:42.654Z,42.20
2019-03-13T02:35:09.528Z,34.70
2019-03-13T02:37:36.364Z,37.13
2019-03-13T02:40:08.703Z,38.33
2019-03-13T02:42:35.353Z,38.27
2019-03-13T02:45:02.894Z,32.47
2019-03-13T02:47:29.851Z,35.13
2019-03-13T02:49:57.075Z,33.33
2019-03-13T02:52:23.850Z,32.97
2019-03-13T02:54:50.764Z,35.00
2019-03-13T02:57:17.545Z,34.93
2019-03-13T02:59:44.164Z,36.43
2019-03-13T03:02:12.897Z,37.93
2019-03-13T03:04:39.521Z,40.17
2019-03-13T03:07:06.298Z,42.50
2019-03-13T03:09:33.015Z,38.77
2019-03-13T03:11:59.742Z,39.30
2019-03-13T03:14:26.312Z,41.10
2019-03-13T03:16:52.904Z,35.53
2019-03-13T03:19:19.766Z,36.67
2019-03-13T03:21:46.467Z,41.23
2019-03-13T03:24:13.359Z,44.43
2019-03-13T03:26:40.139Z,38.70
2019-03-13T03:29:07.058Z,37.63
2019-03-13T03:31:33.742Z,38.23
2019-03-13T03:34:01.215Z,35.57
2019-03-13T03:36:29.075Z,40.27
2019-03-13T03:38:55.838Z,40.23
2019-03-13T03:41:22.712Z,34.33
2019-03-13T03:43:49.705Z,34.90
2019-03-13T03:46:16.514Z,35.00
2019-03-13T03:48:43.139Z,33.13
2019-03-13T03:51:09.716Z,36.40
2019-03-13T03:53:36.326Z,33.07
2019-03-13T03:56:03.553Z,39.40
2019-03-13T03:58:30.423Z,35.30
2019-03-13T04:00:57.180Z,38.90
2019-03-13T04:03:24.227Z,33.73
2019-03-13T04:05:51.084Z,35.20
2019-03-13T04:08:17.658Z,34.77
2019-03-13T04:10:44.220Z,34.93
2019-03-13T04:13:10.846Z,33.20
2019-03-13T04:15:37.502Z,35.17
2019-03-13T04:18:04.060Z,35.47
2019-03-13T04:20:30.680Z,33.00
2019-03-13T04:22:57.301Z,31.63
2019-03-13T04:25:23.974Z,38.53
2019-03-13T04:27:50.712Z,36.27
2019-03-13T04:30:17.515Z,33.90
2019-03-13T04:32:44.311Z,37.83
2019-03-13T04:35:11.063Z,28.50
2019-03-13T04:37:37.815Z,28.43
2019-03-13T04:40:08.976Z,37.27
2019-03-13T04:42:35.539Z,31.13
2019-03-13T04:45:05.305Z,30.57
2019-03-13T04:47:32.293Z,26.83
2019-03-13T04:49:58.882Z,31.17
2019-03-13T04:52:25.464Z,37.57
2019-03-13T04:54:52.026Z,31.40
2019-03-13T04:57:18.651Z,32.90
2019-03-13T04:59:45.233Z,30.83
2019-03-13T05:02:11.859Z,31.60
2019-03-13T05:04:38.425Z,30.83
2019-03-13T05:07:06.901Z,28.67
2019-03-13T05:09:36.676Z,29.63
2019-03-13T05:12:03.510Z,32.47
2019-03-13T05:14:32.651Z,27.73
2019-03-13T05:16:58.744Z,33.90
2019-03-13T05:19:25.345Z,34.43
2019-03-13T05:21:51.923Z,30.80
2019-03-13T05:24:18.521Z,34.03
2019-03-13T05:26:45.067Z,34.03
2019-03-13T05:29:11.640Z,37.83
2019-03-13T05:31:38.232Z,35.30
2019-03-13T05:34:07.948Z,31.63
2019-03-13T05:36:34.624Z,33.43
2019-03-13T05:39:01.256Z,27.60
2019-03-13T05:41:28.730Z,35.70
2019-03-13T05:43:55.349Z,35.47
2019-03-13T05:46:22.047Z,28.03
2019-03-13T05:48:48.721Z,32.00
2019-03-13T05:51:15.553Z,32.83
2019-03-13T05:53:42.299Z,36.17
2019-03-13T05:56:08.877Z,35.17
2019-03-13T05:58:35.514Z,34.17
2019-03-13T06:01:02.933Z,32.40
2019-03-13T06:03:29.501Z,34.50
2019-03-13T06:05:56.271Z,35.53
2019-03-13T06:08:22.870Z,32.37
2019-03-13T06:10:49.603Z,31.67
2019-03-13T06:13:16.459Z,39.30
2019-03-13T06:15:43.290Z,32.27
2019-03-13T06:18:10.084Z,31.27
2019-03-13T06:20:37.161Z,29.27
2019-03-13T06:23:04.169Z,34.73
2019-03-13T06:25:30.970Z,28.00
2019-03-13T06:27:58.934Z,26.80
2019-03-13T06:30:25.641Z,28.73
2019-03-13T06:32:52.436Z,29.57
2019-03-13T06:35:19.147Z,34.40
2019-03-13T06:38:41.981Z,34.93
2019-03-13T06:41:08.717Z,30.93
2019-03-13T06:43:35.275Z,31.27
2019-03-13T06:46:03.933Z,30.70
2019-03-13T06:48:30.525Z,29.87
2019-03-13T06:50:57.089Z,31.57
2019-03-13T06:53:23.900Z,26.33
2019-03-13T06:55:50.525Z,26.30
2019-03-13T06:58:19.156Z,28.90
2019-03-13T07:00:47.663Z,29.37
2019-03-13T07:03:16.153Z,23.03
2019-03-13T07:05:44.668Z,32.90
2019-03-13T07:08:13.324Z,28.80
2019-03-13T07:10:43.694Z,26.60
2019-03-13T07:13:12.241Z,30.30
2019-03-13T07:15:40.874Z,29.30
2019-03-13T07:18:09.343Z,28.07
2019-03-13T07:20:38.020Z,22.73
2019-03-13T07:23:06.675Z,28.97
2019-03-13T07:25:36.470Z,26.17
2019-03-13T07:28:05.177Z,27.27
2019-03-13T07:30:33.684Z,26.17
2019-03-13T07:33:02.163Z,24.43
2019-03-13T07:35:30.674Z,20.53
2019-03-13T07:37:59.183Z,24.47
2019-03-13T07:40:27.707Z,26.47
2019-03-13T07:42:56.256Z,28.80
2019-03-13T07:45:24.875Z,27.37
2019-03-13T07:47:53.442Z,24.00
2019-03-13T07:50:22.006Z,26.50
2019-03-13T07:52:50.831Z,24.03
2019-03-13T07:55:19.875Z,24.33
2019-03-13T07:57:48.512Z,23.27
2019-03-13T08:00:17.538Z,24.07
2019-03-13T08:02:46.024Z,24.60
2019-03-13T08:05:14.650Z,23.10
2019-03-13T08:07:43.382Z,23.10
2019-03-13T08:10:10.671Z,20.23
2019-03-13T08:12:39.379Z,21.10
2019-03-13T08:15:13.026Z,18.50
2019-03-13T08:17:41.621Z,23.53
2019-03-13T08:20:11.071Z,18.60
2019-03-13T08:22:39.684Z,16.07
2019-03-13T08:25:10.361Z,19.70
2019-03-13T08:27:39.065Z,21.50
2019-03-13T08:30:12.364Z,18.20
2019-03-13T08:32:41.045Z,20.17
2019-03-13T08:35:09.858Z,17.33
2019-03-13T08:37:41.662Z,23.17
2019-03-13T08:40:08.829Z,20.27
2019-03-13T08:42:37.329Z,22.00
2019-03-13T08:45:11.470Z,17.97
2019-03-13T08:47:42.300Z,19.57
2019-03-13T08:50:11.845Z,18.77
2019-03-13T08:52:40.498Z,16.17
2019-03-13T08:55:09.391Z,17.23
2019-03-13T08:57:37.932Z,17.83
2019-03-13T09:00:12.149Z,16.20
2019-03-13T09:02:41.419Z,14.43
2019-03-13T09:05:10.287Z,16.40
2019-03-13T09:07:38.805Z,15.53
2019-03-13T09:10:13.996Z,15.33
2019-03-13T09:12:42.873Z,14.27
2019-03-13T09:15:11.990Z,14.60
2019-03-13T09:17:40.501Z,16.47
2019-03-13T09:20:10.203Z,15.17
2019-03-13T09:22:38.724Z,11.70
2019-03-13T09:25:12.501Z,13.73
2019-03-13T09:27:41.067Z,13.83
2019-03-13T09:30:12.905Z,11.40
2019-03-13T09:32:41.438Z,12.27
2019-03-13T09:35:11.412Z,14.40
2019-03-13T09:37:39.958Z,12.53
2019-03-13T09:40:11.578Z,10.93
2019-03-13T09:42:40.073Z,16.87
2019-03-13T09:45:11.081Z,14.27
2019-03-13T09:47:39.632Z,13.70
2019-03-13T09:50:11.681Z,17.07
2019-03-13T09:52:40.135Z,16.77
2019-03-13T09:55:11.344Z,10.77
2019-03-13T09:57:40.166Z,11.97
2019-03-13T10:00:13.481Z,13.80
2019-03-13T10:02:41.988Z,10.67
2019-03-13T10:05:10.813Z,20.00
2019-03-13T10:07:39.557Z,14.23
2019-03-13T10:10:09.607Z,12.80
2019-03-13T10:12:38.419Z,14.37
2019-03-13T10:15:08.670Z,14.13
2019-03-13T10:17:35.417Z,13.67
2019-03-13T10:20:09.369Z,11.17
2019-03-13T10:22:37.986Z,15.33
2019-03-13T10:25:07.783Z,14.40
2019-03-13T10:27:36.395Z,12.70
2019-03-13T10:30:10.656Z,14.03
2019-03-13T10:32:39.270Z,16.97
2019-03-13T10:35:08.051Z,15.93
2019-03-13T10:37:36.538Z,12.20
2019-03-13T10:40:09.310Z,12.20
2019-03-13T10:42:37.910Z,13.07
2019-03-13T10:45:09.235Z,15.90
2019-03-13T10:47:38.340Z,11.70
2019-03-13T10:50:11.776Z,14.03
2019-03-13T10:52:40.395Z,13.73
2019-03-13T10:55:10.713Z,14.70
2019-03-13T10:57:39.547Z,17.37
2019-03-13T11:00:13.541Z,15.93
2019-03-13T11:02:42.518Z,11.87
2019-03-13T11:05:11.367Z,11.63
2019-03-13T11:07:39.997Z,14.93
2019-03-13T11:10:10.925Z,15.73
2019-03-13T11:12:40.217Z,13.93
2019-03-13T11:15:11.214Z,16.53
2019-03-13T11:17:39.711Z,13.33
2019-03-13T11:20:08.269Z,14.40
2019-03-13T11:22:35.269Z,17.90
2019-03-13T11:25:04.155Z,15.20
2019-03-13T11:27:32.727Z,14.37
2019-03-13T11:30:01.234Z,17.17
2019-03-13T11:32:31.447Z,14.80
2019-03-13T11:34:59.963Z,14.50
2019-03-13T11:37:28.567Z,11.60
2019-03-13T11:39:57.153Z,14.33
2019-03-13T11:42:25.723Z,16.17
2019-03-13T11:44:54.470Z,14.70
2019-03-13T11:47:41.730Z,14.03
2019-03-13T11:50:02.902Z,14.73
2019-03-13T11:52:33.291Z,15.60
2019-03-13T11:55:02.062Z,15.63
2019-03-13T11:57:30.649Z,15.87
2019-03-13T11:59:59.130Z,16.43
2019-03-13T12:02:27.905Z,19.07
2019-03-13T12:04:56.455Z,18.93
2019-03-13T12:07:25.203Z,21.70
2019-03-13T12:09:54.033Z,15.13
2019-03-13T12:12:22.939Z,15.97
2019-03-13T12:14:51.498Z,16.80
2019-03-13T12:17:20.195Z,15.53
2019-03-13T12:19:51.697Z,18.33
2019-03-13T12:22:20.229Z,19.30
2019-03-13T12:24:48.834Z,16.43
2019-03-13T12:27:15.657Z,16.97
2019-03-13T12:29:45.888Z,19.33
2019-03-13T12:32:14.945Z,20.27
2019-03-13T12:34:43.515Z,19.47
2019-03-13T12:37:12.168Z,23.93
2019-03-13T12:39:42.103Z,24.30
2019-03-13T12:42:10.913Z,21.93
2019-03-13T12:44:39.519Z,26.73
2019-03-13T12:47:08.249Z,25.77
2019-03-13T12:49:34.917Z,26.33
2019-03-13T12:52:03.569Z,26.57
2019-03-13T12:54:32.320Z,24.70
2019-03-13T12:57:01.092Z,25.03
2019-03-13T12:59:29.664Z,24.20
2019-03-13T13:01:58.219Z,20.53
2019-03-13T13:04:26.809Z,20.73
2019-03-13T13:06:55.338Z,20.20
2019-03-13T13:09:25.560Z,24.37
2019-03-13T13:11:54.458Z,27.33
2019-03-13T13:14:23.196Z,27.87
2019-03-13T13:16:51.764Z,25.40
2019-03-13T13:19:18.427Z,26.60
2019-03-13T13:21:45.287Z,29.73
2019-03-13T13:24:11.936Z,25.47
2019-03-13T13:26:38.590Z,22.60
2019-03-13T13:29:05.359Z,17.67
2019-03-13T13:31:32.032Z,19.33
2019-03-13T13:33:58.649Z,20.33
2019-03-13T13:36:26.787Z,16.07
2019-03-13T13:38:54.090Z,15.83
2019-03-13T13:41:20.697Z,15.83
2019-03-13T13:43:47.325Z,16.13
2019-03-13T13:46:19.268Z,12.20
2019-03-13T13:48:46.181Z,17.13
2019-03-13T13:51:12.976Z,13.13
2019-03-13T13:53:39.660Z,17.77
2019-03-13T13:56:06.260Z,14.70
2019-03-13T13:58:32.844Z,15.20
2019-03-13T14:00:59.624Z,13.23
2019-03-13T14:03:26.280Z,18.07
2019-03-13T14:05:52.910Z,21.43
2019-03-13T14:08:20.901Z,15.17
2019-03-13T14:10:47.523Z,11.77
2019-03-13T14:13:14.205Z,13.17
2019-03-13T14:15:40.942Z,11.87
2019-03-13T14:18:07.508Z,10.20
2019-03-13T14:20:34.114Z,13.23
2019-03-13T14:23:00.751Z,8.77
2019-03-13T14:25:27.487Z,11.10
2019-03-13T14:27:54.207Z,12.37
2019-03-13T14:30:22.414Z,14.63
2019-03-13T14:32:49.305Z,11.20
2019-03-13T14:35:17.689Z,10.57
2019-03-13T14:37:44.545Z,9.20
2019-03-13T14:40:15.138Z,11.07
2019-03-13T14:42:42.032Z,8.77
2019-03-13T14:45:14.002Z,9.90
2019-03-13T14:47:40.811Z,14.93
2019-03-13T14:50:13.095Z,9.63
2019-03-13T14:52:40.982Z,8.70
2019-03-13T14:55:11.617Z,10.53
2019-03-13T14:57:38.382Z,7.83
2019-03-13T15:00:10.756Z,8.97
2019-03-13T15:02:37.483Z,9.17
2019-03-13T15:05:05.268Z,6.93
2019-03-13T15:07:32.239Z,10.23
2019-03-13T15:09:58.906Z,6.17
2019-03-13T15:12:25.641Z,6.17
2019-03-13T15:14:52.205Z,11.53
2019-03-13T15:17:19.072Z,8.90
2019-03-13T15:19:45.647Z,13.90
2019-03-13T15:22:13.254Z,17.60
2019-03-13T15:24:40.005Z,26.30
2019-03-13T15:27:06.864Z,11.27
2019-03-13T15:29:33.413Z,11.40
2019-03-13T15:32:00.163Z,10.13
2019-03-13T15:34:26.754Z,8.10
2019-03-13T15:36:53.321Z,13.00
2019-03-13T15:39:19.926Z,10.90
2019-03-13T15:41:49.661Z,14.77
2019-03-13T15:44:16.277Z,12.53
2019-03-13T15:46:42.966Z,12.47
2019-03-13T15:49:09.575Z,13.07
2019-03-13T15:51:38.665Z,14.07
2019-03-13T15:54:04.687Z,14.80
2019-03-13T15:56:31.279Z,11.47
2019-03-13T15:58:58.073Z,13.70
2019-03-13T16:01:24.674Z,13.63
2019-03-13T16:03:51.478Z,17.87
2019-03-13T16:06:18.115Z,14.73
2019-03-13T16:08:44.953Z,11.73
2019-03-13T16:11:11.671Z,9.70
2019-03-13T16:13:38.253Z,9.87
2019-03-13T16:16:05.312Z,10.73
2019-03-13T16:18:31.921Z,12.20
2019-03-13T16:20:58.651Z,13.07
2019-03-13T16:23:25.467Z,10.60
2019-03-13T16:25:55.477Z,13.67
2019-03-13T16:28:22.241Z,12.60
2019-03-13T16:30:54.231Z,16.37
2019-03-13T16:33:22.828Z,18.00
2019-03-13T16:35:49.552Z,17.10
2019-03-13T16:38:16.325Z,20.00
2019-03-13T16:40:45.155Z,21.73
2019-03-13T16:43:11.967Z,19.67
2019-03-13T16:45:39.831Z,20.57
2019-03-13T16:48:08.758Z,22.50
2019-03-13T16:50:37.358Z,34.00
2019-03-13T16:53:05.265Z,31.97
2019-03-13T16:55:32.387Z,33.50
2019-03-13T16:57:59.816Z,35.77
2019-03-13T17:00:30.031Z,29.43
2019-03-13T17:03:00.768Z,29.87
2019-03-13T17:05:28.519Z,25.83
2019-03-13T17:07:55.856Z,26.63
2019-03-13T17:10:25.114Z,26.17
2019-03-13T17:12:52.083Z,22.73
2019-03-13T17:15:24.363Z,25.20
2019-03-13T17:17:52.758Z,25.30
2019-03-13T17:20:26.272Z,25.10
2019-03-13T17:22:52.519Z,29.23
2019-03-13T17:25:20.315Z,24.00
2019-03-13T17:27:48.083Z,25.40
2019-03-13T17:30:19.423Z,20.03
2019-03-13T17:32:46.435Z,22.90
2019-03-13T17:35:13.882Z,23.83
2019-03-13T17:37:40.821Z,26.03
2019-03-13T17:40:12.931Z,32.23
2019-03-13T17:42:39.883Z,27.20
2019-03-13T17:45:12.272Z,29.93
2019-03-13T17:47:39.209Z,34.77
2019-03-13T17:50:11.642Z,40.40
2019-03-13T17:52:38.581Z,38.13
2019-03-13T17:55:09.507Z,39.93
2019-03-13T17:57:36.564Z,52.80
2019-03-13T18:00:09.105Z,59.40
2019-03-13T18:02:36.291Z,68.97
2019-03-13T18:05:10.585Z,80.10
2019-03-13T18:07:38.646Z,94.73
2019-03-13T18:10:10.948Z,93.47
2019-03-13T18:12:37.638Z,54.73
2019-03-13T18:15:07.984Z,48.50
2019-03-13T18:17:34.928Z,48.83
2019-03-13T18:20:02.720Z,49.90
2019-03-13T18:22:30.747Z,52.13
2019-03-13T18:24:57.588Z,59.10
2019-03-13T18:27:25.448Z,61.30
2019-03-13T18:29:52.137Z,70.47
2019-03-13T18:32:18.954Z,72.17
2019-03-13T18:34:45.626Z,74.67
2019-03-13T18:37:12.412Z,78.40
2019-03-13T18:39:39.151Z,78.03
2019-03-13T18:42:05.980Z,79.83
2019-03-13T18:44:32.823Z,72.57
2019-03-13T18:46:59.740Z,77.77
2019-03-13T18:49:29.759Z,78.90
2019-03-13T18:51:56.621Z,72.80
2019-03-13T18:54:23.428Z,72.60
2019-03-13T18:56:52.112Z,67.43
2019-03-13T18:59:20.732Z,74.43
2019-03-13T19:01:47.908Z,75.33
2019-03-13T19:04:14.755Z,73.90
2019-03-13T19:06:41.690Z,67.40
2019-03-13T19:09:08.759Z,79.60
2019-03-13T19:11:37.594Z,66.10
2019-03-13T19:14:04.538Z,63.33
2019-03-13T19:16:31.503Z,60.80
2019-03-13T19:18:58.259Z,66.70
2019-03-13T19:21:27.078Z,67.40
2019-03-13T19:23:54.148Z,64.87
2019-03-13T19:26:21.111Z,75.33
2019-03-13T19:28:47.952Z,65.87
2019-03-13T19:31:14.849Z,61.97
2019-03-13T19:33:44.521Z,59.47
2019-03-13T19:36:12.077Z,61.67
2019-03-13T19:38:42.006Z,54.67
2019-03-13T19:41:09.228Z,52.90
2019-03-13T19:43:36.540Z,47.00
2019-03-13T19:46:08.752Z,53.37
2019-03-13T19:48:36.684Z,50.20
2019-03-13T19:51:06.886Z,51.67
2019-03-13T19:53:36.281Z,54.27
2019-03-13T19:56:03.188Z,42.70
2019-03-13T19:58:30.242Z,53.77
2019-03-13T20:00:57.253Z,52.47
2019-03-13T20:03:28.221Z,55.93
2019-03-13T20:05:55.113Z,73.17
2019-03-13T20:08:22.640Z,74.23
2019-03-13T20:10:49.632Z,81.23
2019-03-13T20:13:19.162Z,96.97
2019-03-13T20:15:52.159Z,105.57
2019-03-13T20:18:23.091Z,90.43
2019-03-13T20:20:50.245Z,90.37
2019-03-13T20:23:17.320Z,112.50
2019-03-13T20:25:44.351Z,113.00
2019-03-13T20:28:17.403Z,112.40
2019-03-13T20:30:48.481Z,104.47
2019-03-13T20:33:15.486Z,96.43
2019-03-13T20:35:42.244Z,82.13
2019-03-13T20:38:09.050Z,83.70
2019-03-13T20:40:38.578Z,76.43
2019-03-13T20:43:08.105Z,68.47
2019-03-13T20:45:36.988Z,68.57
2019-03-13T20:48:04.136Z,66.80
2019-03-13T20:50:37.412Z,72.43
2019-03-13T20:52:59.851Z,65.97
2019-03-13T20:55:26.931Z,71.63
2019-03-13T20:57:56.912Z,76.17
2019-03-13T21:00:26.564Z,64.67
2019-03-13T21:02:57.628Z,65.23
2019-03-13T21:05:25.091Z,70.47
2019-03-13T21:07:52.916Z,72.13
2019-03-13T21:10:19.926Z,61.23
2019-03-13T21:12:46.972Z,65.27
2019-03-13T21:15:20.519Z,62.13
2019-03-13T21:17:48.669Z,76.73
2019-03-13T21:20:17.100Z,74.60
2019-03-13T21:22:44.429Z,74.77
2019-03-13T21:25:15.126Z,81.03
2019-03-13T21:27:42.453Z,81.50
2019-03-13T21:30:15.314Z,81.43
2019-03-13T21:32:42.152Z,70.37
2019-03-13T21:35:09.694Z,60.47
2019-03-13T21:37:37.591Z,60.40
2019-03-13T21:40:09.160Z,63.20
2019-03-13T21:42:35.858Z,61.87
2019-03-13T21:45:05.289Z,63.40
2019-03-13T21:47:32.091Z,65.93
2019-03-13T21:49:59.085Z,68.20
2019-03-13T21:52:25.697Z,68.07
2019-03-13T21:54:52.402Z,74.40
2019-03-13T21:57:19.987Z,73.47
2019-03-13T21:59:46.904Z,70.97
2019-03-13T22:02:14.066Z,71.73
2019-03-13T22:04:40.871Z,67.17
2019-03-13T22:07:07.707Z,59.57
2019-03-13T22:09:34.418Z,66.17
2019-03-13T22:12:01.127Z,64.43
2019-03-13T22:14:27.804Z,63.37
2019-03-13T22:16:54.406Z,65.07
2019-03-13T22:19:21.156Z,69.43
2019-03-13T22:21:49.770Z,63.57
2019-03-13T22:24:16.569Z,62.17
2019-03-13T22:26:43.241Z,63.97
2019-03-13T22:29:09.896Z,57.03
2019-03-13T22:31:36.702Z,63.53
2019-03-13T22:34:03.402Z,63.83
2019-03-13T22:36:29.997Z,64.23
2019-03-13T22:38:56.698Z,77.40
2019-03-13T22:41:23.311Z,68.80
2019-03-13T22:43:49.921Z,62.53
2019-03-13T22:46:16.847Z,64.40
2019-03-13T22:48:43.536Z,68.60
2019-03-13T22:51:10.178Z,64.43
2019-03-13T22:53:37.918Z,71.63
2019-03-13T22:56:04.601Z,62.70
2019-03-13T22:58:31.288Z,67.83
2019-03-13T23:01:05.524Z,58.63
2019-03-13T23:03:34.161Z,63.67
2019-03-13T23:06:01.396Z,58.10
2019-03-13T23:08:30.960Z,60.40
2019-03-13T23:10:57.134Z,57.37
2019-03-13T23:13:23.801Z,66.00
2019-03-13T23:15:50.599Z,63.33
2019-03-13T23:18:18.460Z,64.67
2019-03-13T23:20:45.881Z,60.27
2019-03-13T23:23:12.614Z,60.90
2019-03-13T23:25:39.365Z,59.27
2019-03-13T23:28:05.989Z,53.83
2019-03-13T23:30:32.638Z,58.77
2019-03-13T23:32:59.299Z,65.20
2019-03-13T23:35:25.867Z,58.80
2019-03-13T23:37:52.529Z,59.83
2019-03-13T23:40:19.448Z,57.20
2019-03-13T23:42:46.077Z,54.50
2019-03-13T23:45:13.075Z,53.10
2019-03-13T23:47:39.822Z,57.60
2019-03-13T23:50:11.596Z,57.07
2019-03-13T23:52:38.311Z,67.30
2019-03-13T23:55:07.081Z,75.13
2019-03-13T23:57:33.806Z,65.23
